Time;durP1;ratioP1;P1;durP2;ratioP2;P2;SDS_P1;SDS_P2;PMS_P1;PMS_P2;Temp;Humidity;BMP_temperature;BMP_pressure;BME280_temperature;BME280_humidity;BME280_pressure;Samples;Min_cycle;Max_cycle;Signal;HPM_P1;HPM_P2
2021/11/18 00:01:19;;;;;;;13.85;9.20;;;;;;;6.39;56.71;100229.81;3422364;28;20046;-71
2021/11/18 00:03:00;;;;;;;12.55;8.32;;;;;;;6.40;56.83;100226.19;3422694;28;21971;-70
2021/11/18 00:04:41;;;;;;;13.82;8.38;;;;;;;6.40;56.52;100225.34;3423993;28;20050;-71
2021/11/18 00:06:22;;;;;;;12.75;7.97;;;;;;;6.40;56.63;100228.84;3422577;28;20062;-70
2021/11/18 00:08:03;;;;;;;12.68;8.02;;;;;;;6.37;56.46;100229.13;3422574;28;20039;-70
2021/11/18 00:09:44;;;;;;;12.65;8.50;;;;;;;6.37;56.45;100229.13;3420779;28;20051;-70
2021/11/18 00:11:25;;;;;;;11.07;7.93;;;;;;;6.36;56.40;100216.88;3423915;28;20039;-70
2021/11/18 00:13:09;;;;;;;14.48;8.70;;;;;;;6.33;56.39;100218.03;3425314;28;20043;-70
2021/11/18 00:14:51;;;;;;;13.77;8.63;;;;;;;6.37;56.44;100218.53;3423459;28;20042;-71
2021/11/18 00:16:31;;;;;;;13.88;8.55;;;;;;;6.36;56.47;100222.19;3421215;28;20035;-73
2021/11/18 00:18:21;;;;;;;13.32;8.70;;;;;;;6.36;56.51;100214.25;3421801;28;20105;-72
2021/11/18 00:20:05;;;;;;;13.65;8.95;;;;;;;6.39;56.34;100219.22;3422836;28;20034;-71
2021/11/18 00:21:46;;;;;;;12.30;8.32;;;;;;;6.39;56.39;100213.94;3421020;28;20141;-71
2021/11/18 00:23:30;;;;;;;12.95;8.52;;;;;;;6.40;56.25;100220.91;3422032;28;20046;-71
2021/11/18 00:25:12;;;;;;;15.05;8.25;;;;;;;6.42;56.09;100208.31;3420863;28;20035;-70
2021/11/18 00:26:54;;;;;;;12.02;8.23;;;;;;;6.41;56.00;100205.84;3420814;28;20035;-71
2021/11/18 00:28:35;;;;;;;11.48;8.05;;;;;;;6.41;56.00;100209.31;3407978;28;20134;-70
2021/11/18 00:30:16;;;;;;;12.65;8.05;;;;;;;6.41;55.74;100209.31;3418143;28;20182;-70
2021/11/18 00:31:57;;;;;;;11.85;8.05;;;;;;;6.40;55.77;100207.66;3423159;28;20045;-71
2021/11/18 00:33:38;;;;;;;12.15;7.57;;;;;;;6.41;55.76;100203.19;3423150;28;20053;-71
2021/11/18 00:35:24;;;;;;;14.02;8.80;;;;;;;6.40;55.68;100209.44;3424141;28;20047;-70
2021/11/18 00:37:06;;;;;;;13.23;8.30;;;;;;;6.35;55.68;100209.94;3416575;28;20139;-71
2021/11/18 00:38:48;;;;;;;12.68;6.78;;;;;;;6.31;55.48;100203.28;3415038;28;20047;-70
2021/11/18 00:40:34;;;;;;;8.98;5.55;;;;;;;6.28;55.16;100208.88;3427647;28;20042;-71
2021/11/18 00:42:15;;;;;;;7.63;5.22;;;;;;;6.24;55.18;100203.06;3438200;28;20125;-72
2021/11/18 00:43:56;;;;;;;8.82;5.70;;;;;;;6.23;55.03;100196.09;3412110;28;20110;-70
2021/11/18 00:45:37;;;;;;;10.43;5.82;;;;;;;6.21;55.01;100192.78;3412650;28;20091;-70
2021/11/18 00:47:17;;;;;;;8.38;5.15;;;;;;;6.20;55.10;100206.19;3420975;28;20054;-70
2021/11/18 00:48:58;;;;;;;10.57;5.93;;;;;;;6.17;54.88;100190.59;3428364;28;20494;-70
2021/11/18 00:50:47;;;;;;;8.90;5.32;;;;;;;6.14;54.70;100196.19;3400423;29;20079;-70
2021/11/18 00:52:28;;;;;;;9.95;6.03;;;;;;;6.08;54.86;100185.25;3425041;28;20046;-71
2021/11/18 00:54:09;;;;;;;11.10;6.55;;;;;;;6.08;54.82;100187.88;3426787;28;20050;-70
2021/11/18 00:55:51;;;;;;;9.80;5.85;;;;;;;6.06;54.88;100184.56;3427267;28;20035;-70
2021/11/18 00:57:33;;;;;;;12.27;7.03;;;;;;;6.06;54.88;100184.56;3413782;29;20039;-70
2021/11/18 00:59:14;;;;;;;12.70;6.93;;;;;;;6.05;54.95;100182.06;3411038;28;20043;-71
2021/11/18 01:00:55;;;;;;;11.05;7.30;;;;;;;6.05;55.12;100179.44;3411416;28;20170;-70
2021/11/18 01:02:40;;;;;;;11.18;7.22;;;;;;;6.06;55.14;100179.25;3425132;28;20047;-70
2021/11/18 01:04:27;;;;;;;10.02;6.55;;;;;;;6.08;55.10;100182.59;3412733;28;20550;-69
2021/11/18 01:06:09;;;;;;;11.20;7.15;;;;;;;6.10;55.18;100172.69;3425210;28;20046;-70
2021/11/18 01:07:50;;;;;;;14.07;7.57;;;;;;;6.11;54.97;100173.50;3413508;28;20462;-70
2021/11/18 01:09:33;;;;;;;9.68;6.72;;;;;;;6.10;55.05;100174.50;3424681;28;20058;-69
2021/11/18 01:11:18;;;;;;;14.38;7.90;;;;;;;6.11;55.04;100171.69;3428097;28;20049;-70
2021/11/18 01:13:00;;;;;;;12.63;7.05;;;;;;;6.11;54.92;100170.88;3414183;28;20090;-70
2021/11/18 01:14:43;;;;;;;11.48;7.95;;;;;;;6.11;54.81;100171.69;3426140;28;20049;-70
2021/11/18 01:16:29;;;;;;;13.85;7.38;;;;;;;6.08;54.95;100179.13;3428455;28;20050;-69
2021/11/18 01:18:12;;;;;;;13.25;7.95;;;;;;;6.02;54.85;100177.09;3415094;28;20039;-70
2021/11/18 01:19:54;;;;;;;11.77;7.28;;;;;;;5.99;54.98;100166.78;3424899;28;20101;-70
2021/11/18 01:21:36;;;;;;;13.95;7.70;;;;;;;5.97;55.25;100169.59;3430080;28;20141;-71
2021/11/18 01:23:21;;;;;;;14.32;9.63;;;;;;;5.96;54.94;100167.94;3441553;28;20033;-69
2021/11/18 01:25:03;;;;;;;11.25;7.43;;;;;;;5.95;54.99;100161.00;3443881;28;20039;-70
2021/11/18 01:26:49;;;;;;;11.70;7.28;;;;;;;5.95;55.03;100161.00;3440400;28;20129;-69
2021/11/18 01:28:30;;;;;;;11.75;7.20;;;;;;;5.97;54.97;100166.97;3441455;28;20043;-69
2021/11/18 01:30:15;;;;;;;11.93;6.90;;;;;;;5.99;55.04;100166.78;3435231;28;20030;-70
2021/11/18 01:31:59;;;;;;;14.52;8.23;;;;;;;5.99;54.66;100162.34;3420799;28;20455;-69
2021/11/18 01:33:44;;;;;;;11.40;7.10;;;;;;;5.99;54.65;100159.72;3428579;28;20035;-69
2021/11/18 01:35:25;;;;;;;12.25;7.82;;;;;;;6.00;54.45;100163.19;3428934;28;20101;-70
2021/11/18 01:37:07;;;;;;;14.85;8.35;;;;;;;6.01;54.45;100157.72;3429275;28;20045;-70
2021/11/18 01:38:49;;;;;;;12.48;7.28;;;;;;;6.01;54.28;100165.66;3440797;28;20050;-71
2021/11/18 01:40:43;;;;;;;12.73;7.43;;;;;;;6.01;54.15;100163.00;3413846;28;20043;-70
2021/11/18 01:42:41;;;;;;;15.88;8.05;;;;;;;5.97;54.09;100159.03;3431035;28;20043;-69
2021/11/18 01:44:31;;;;;;;16.05;7.32;;;;;;;5.93;54.01;100157.63;3429856;28;20043;-69
2021/11/18 01:46:23;;;;;;;14.23;7.95;;;;;;;5.90;53.84;100152.66;3415551;28;20050;-70
2021/11/18 01:48:04;;;;;;;12.38;7.72;;;;;;;5.86;53.99;100151.28;3400973;29;20048;-70
2021/11/18 01:49:47;;;;;;;13.25;8.10;;;;;;;5.83;53.95;100157.72;3424140;28;20062;-71
2021/11/18 01:51:31;;;;;;;13.05;7.03;;;;;;;5.84;54.02;100148.81;3408616;28;20063;-71
2021/11/18 01:53:14;;;;;;;12.10;7.65;;;;;;;5.86;53.89;100153.94;3411795;28;20593;-70
2021/11/18 01:54:59;;;;;;;14.80;8.40;;;;;;;5.86;53.90;100151.28;3400096;29;20047;-71
2021/11/18 01:56:40;;;;;;;12.75;7.80;;;;;;;5.84;53.70;100140.03;3410740;28;20550;-71
2021/11/18 01:58:22;;;;;;;13.30;8.32;;;;;;;5.82;53.84;100149.94;3412448;28;20549;-71
2021/11/18 02:00:33;;;;;;;14.27;8.43;;;;;;;5.78;53.68;100138.00;3428622;28;20053;-71
2021/11/18 02:02:17;;;;;;;12.90;8.27;;;;;;;5.76;53.68;100134.69;3418128;28;20043;-70
2021/11/18 02:04:26;;;;;;;12.73;6.97;;;;;;;5.77;53.71;100152.22;3428535;28;20035;-71
2021/11/18 02:06:20;;;;;;;12.60;7.43;;;;;;;5.72;53.32;100136.78;3428667;28;20030;-70
2021/11/18 02:08:04;;;;;;;13.77;8.30;;;;;;;5.71;53.56;100142.25;3402114;29;20111;-70
2021/11/18 02:09:51;;;;;;;13.25;7.88;;;;;;;5.70;53.35;100151.97;3424854;28;20035;-70
2021/11/18 02:11:38;;;;;;;17.00;8.05;;;;;;;5.71;53.29;100144.91;3412463;28;20050;-71
2021/11/18 02:13:21;;;;;;;13.48;7.63;;;;;;;5.70;53.14;100141.41;3412784;28;20616;-71
2021/11/18 02:15:04;;;;;;;12.05;8.23;;;;;;;5.72;53.00;100144.72;3412968;28;20542;-70
2021/11/18 02:16:46;;;;;;;10.20;6.70;;;;;;;5.74;52.97;100139.28;3399411;29;20040;-70
2021/11/18 02:18:36;;;;;;;16.33;9.45;;;;;;;5.69;52.85;100130.00;3423429;28;20561;-70
2021/11/18 02:20:23;;;;;;;10.68;6.90;;;;;;;5.64;52.77;100134.91;3425626;28;20054;-70
2021/11/18 02:22:05;;;;;;;16.17;8.50;;;;;;;5.57;52.79;100131.19;3427792;28;20533;-70
2021/11/18 02:23:49;;;;;;;16.05;8.88;;;;;;;5.55;52.78;100132.34;3424937;28;20054;-71
2021/11/18 02:25:33;;;;;;;13.55;8.07;;;;;;;5.53;52.63;100129.84;3401613;28;20049;-69
2021/11/18 02:27:18;;;;;;;11.90;7.07;;;;;;;5.54;52.82;100126.22;3423425;28;20043;-70
2021/11/18 02:29:04;;;;;;;14.63;7.90;;;;;;;5.58;52.76;100127.59;3415023;28;20142;-70
2021/11/18 02:30:48;;;;;;;12.35;7.80;;;;;;;5.59;52.68;100115.19;3409972;28;20133;-70
2021/11/18 02:32:32;;;;;;;11.48;6.93;;;;;;;5.59;52.48;100110.72;3419561;28;20454;-70
2021/11/18 02:34:20;;;;;;;13.38;7.50;;;;;;;5.60;51.91;100116.84;3425467;28;20039;-70
2021/11/18 02:36:00;;;;;;;11.50;7.47;;;;;;;5.60;52.47;100119.50;3425796;28;20035;-70
2021/11/18 02:37:42;;;;;;;14.13;8.20;;;;;;;5.57;52.39;100112.69;3424365;28;20137;-70
2021/11/18 02:39:22;;;;;;;14.50;7.95;;;;;;;5.57;52.40;100110.03;3428733;28;20038;-69
2021/11/18 02:41:05;;;;;;;18.05;10.25;;;;;;;5.57;52.40;100112.69;3439826;28;20046;-70
2021/11/18 02:42:47;;;;;;;11.30;7.38;;;;;;;5.57;52.31;100110.03;3404132;28;20153;-71
2021/11/18 02:44:29;;;;;;;15.85;8.90;;;;;;;5.58;52.27;100108.25;3409934;28;20105;-72
2021/11/18 02:46:10;;;;;;;;;;;;;;;5.67;52.19;100110.78;3414664;28;20439;-69
2021/11/18 02:47:51;;;;;;;11.73;7.75;;;;;;;5.52;52.17;100114.97;3427576;28;20021;-70
2021/11/18 02:49:32;;;;;;;14.77;8.40;;;;;;;5.49;52.38;100107.34;3414702;28;20450;-70
2021/11/18 02:51:15;;;;;;;14.20;8.60;;;;;;;5.50;52.31;100095.78;3403743;28;20423;-69
2021/11/18 02:52:56;;;;;;;15.85;7.88;;;;;;;5.49;52.27;100111.78;3425171;28;20038;-71
2021/11/18 02:54:38;;;;;;;10.98;6.80;;;;;;;5.49;52.16;100111.78;3416597;28;20066;-71
2021/11/18 02:56:19;;;;;;;13.85;8.45;;;;;;;5.49;52.15;100098.56;3425702;28;20074;-70
2021/11/18 02:58:01;;;;;;;;;;;;;;;5.63;52.12;100104.16;3415515;28;20061;-70
2021/11/18 02:59:42;;;;;;;12.70;6.75;;;;;;;5.53;51.79;100094.66;3426111;28;19957;-71
2021/11/18 03:01:28;;;;;;;12.63;7.78;;;;;;;5.48;51.84;100105.69;3403319;28;20071;-70
2021/11/18 03:03:12;;;;;;;13.32;8.15;;;;;;;5.44;51.51;100106.97;3412867;28;20039;-70
2021/11/18 03:04:53;;;;;;;15.13;8.55;;;;;;;5.39;51.70;100107.41;3411331;28;20043;-70
2021/11/18 03:06:34;;;;;;;13.73;8.10;;;;;;;5.33;51.68;100105.38;3425154;28;20049;-70
2021/11/18 03:08:16;;;;;;;16.10;9.02;;;;;;;5.31;51.81;100093.28;3428421;28;20050;-71
2021/11/18 03:09:58;;;;;;;13.40;8.07;;;;;;;5.28;51.97;100094.41;3427456;28;20051;-71
2021/11/18 03:11:39;;;;;;;12.70;8.60;;;;;;;5.28;51.90;100093.59;3421824;28;20109;-72
2021/11/18 03:13:22;;;;;;;16.85;8.75;;;;;;;5.29;52.07;100103.19;3400974;29;20040;-71
2021/11/18 03:15:05;;;;;;;14.02;8.13;;;;;;;5.30;51.88;100096.94;3398622;29;20102;-71
2021/11/18 03:16:49;;;;;;;14.13;8.13;;;;;;;5.31;51.76;100093.28;3399444;28;20046;-71
2021/11/18 03:18:35;;;;;;;15.55;9.15;;;;;;;5.28;51.74;100093.59;3412463;28;20095;-70
2021/11/18 03:20:20;;;;;;;14.00;9.43;;;;;;;5.24;51.48;100091.25;3400936;29;20047;-71
2021/11/18 03:22:01;;;;;;;21.45;10.23;;;;;;;5.23;51.62;100086.13;3424781;28;20049;-70
2021/11/18 03:23:42;;;;;;;13.75;9.10;;;;;;;5.23;51.59;100086.13;3414115;28;20561;-71
2021/11/18 03:25:29;;;;;;;16.08;8.20;;;;;;;5.21;51.37;100094.22;3426208;28;20042;-71
2021/11/18 03:27:16;;;;;;;14.20;9.25;;;;;;;5.21;51.43;100081.00;3414150;28;20505;-71
2021/11/18 03:28:57;;;;;;;11.68;8.15;;;;;;;5.20;51.41;100086.41;3411532;28;20043;-70
2021/11/18 03:30:44;;;;;;;14.88;8.73;;;;;;;5.21;51.26;100081.00;3424894;28;20046;-71
2021/11/18 03:32:26;;;;;;;15.18;8.75;;;;;;;5.20;51.12;100089.88;3414509;28;20043;-71
2021/11/18 03:34:12;;;;;;;17.77;10.02;;;;;;;5.14;50.98;100081.75;3411767;28;20209;-70
2021/11/18 03:35:56;;;;;;;15.43;8.95;;;;;;;5.11;51.22;100090.81;3423999;28;20526;-70
2021/11/18 03:37:36;;;;;;;17.98;8.63;;;;;;;5.09;51.03;100097.22;3428463;28;20517;-70
2021/11/18 03:39:19;;;;;;;14.35;8.48;;;;;;;5.05;50.93;100094.03;3414168;28;20123;-70
2021/11/18 03:41:04;;;;;;;13.88;8.48;;;;;;;5.02;51.06;100092.50;3411775;28;20051;-70
2021/11/18 03:42:47;;;;;;;14.57;9.05;;;;;;;5.01;50.78;100095.31;3412250;28;20106;-70
2021/11/18 03:44:34;;;;;;;17.88;9.75;;;;;;;4.94;50.49;100086.31;3400488;28;20545;-71
2021/11/18 03:46:16;;;;;;;14.65;9.20;;;;;;;4.88;50.51;100084.25;3411364;28;20107;-70
2021/11/18 03:47:58;;;;;;;16.88;8.65;;;;;;;4.84;50.66;100082.91;3411114;28;20043;-71
2021/11/18 03:49:39;;;;;;;14.73;8.25;;;;;;;4.84;50.59;100067.06;3414295;28;20047;-71
2021/11/18 03:51:21;;;;;;;18.92;9.55;;;;;;;4.86;50.75;100075.66;3415600;28;20075;-71
2021/11/18 03:53:03;;;;;;;15.90;9.57;;;;;;;4.89;50.73;100068.25;3413777;28;20450;-71
2021/11/18 03:54:45;;;;;;;14.68;8.82;;;;;;;4.92;50.59;100069.78;3410192;29;20039;-70
2021/11/18 03:56:34;;;;;;;20.33;11.45;;;;;;;4.92;50.49;100062.69;3400505;29;20103;-71
2021/11/18 03:58:16;;;;;;;17.17;10.40;;;;;;;4.91;50.50;100057.56;3400593;29;20073;-70
2021/11/18 03:59:58;;;;;;;21.02;10.38;;;;;;;4.90;50.35;100059.34;3397988;29;20514;-72
2021/11/18 04:01:40;;;;;;;26.23;11.45;;;;;;;4.87;50.45;100053.53;3414189;28;20061;-71
2021/11/18 04:03:20;;;;;;;18.23;10.02;;;;;;;4.82;50.46;100068.00;3413656;28;20046;-72
2021/11/18 04:05:02;;;;;;;22.13;10.82;;;;;;;4.83;50.84;100063.59;3420820;28;20070;-72
2021/11/18 04:06:53;;;;;;;22.60;11.77;;;;;;;4.84;50.67;100059.97;3401606;28;20193;-72
2021/11/18 04:08:34;;;;;;;27.38;12.20;;;;;;;4.89;50.50;100070.09;3397438;29;20051;-71
2021/11/18 04:10:19;;;;;;;20.35;10.82;;;;;;;4.92;50.80;100064.50;3411406;28;20510;-71
2021/11/18 04:12:00;;;;;;;21.20;10.93;;;;;;;4.88;50.70;100066.63;3411277;28;20371;-72
2021/11/18 04:13:42;;;;;;;28.85;12.82;;;;;;;4.81;50.65;100060.25;3387229;29;20120;-71
2021/11/18 04:15:25;;;;;;;22.17;11.68;;;;;;;4.75;50.71;100061.69;3375413;29;20086;-71
2021/11/18 04:17:09;;;;;;;21.90;11.55;;;;;;;4.74;50.77;100064.47;3409334;29;20561;-71
2021/11/18 04:18:50;;;;;;;19.95;12.05;;;;;;;4.72;50.64;100051.41;3413731;29;20055;-70
2021/11/18 04:20:33;;;;;;;20.40;12.07;;;;;;;4.67;50.80;100043.09;3403435;29;20039;-73
2021/11/18 04:22:14;;;;;;;21.30;13.02;;;;;;;4.69;50.82;100050.88;3413010;29;20043;-75
2021/11/18 04:23:55;;;;;;;25.98;13.00;;;;;;;4.71;50.86;100052.38;3387189;29;20047;-76
2021/11/18 04:25:37;;;;;;;21.50;13.00;;;;;;;4.70;50.78;100037.53;3398281;29;20526;-76
2021/11/18 04:27:17;;;;;;;19.52;11.43;;;;;;;4.71;50.78;100039.19;3386928;29;20040;-75
2021/11/18 04:28:59;;;;;;;24.27;13.15;;;;;;;4.71;50.93;100057.66;3397602;29;20174;-74
2021/11/18 04:30:54;;;;;;;31.30;15.55;;;;;;;4.69;50.94;100046.41;3399286;29;20054;-72
2021/11/18 04:32:38;;;;;;;24.70;13.77;;;;;;;4.66;50.84;100037.97;3413494;29;20522;-73
2021/11/18 04:34:19;;;;;;;19.90;12.55;;;;;;;4.64;50.93;100043.38;3403416;29;20046;-71
2021/11/18 04:36:06;;;;;;;23.25;14.40;;;;;;;4.64;50.90;100038.09;3413110;29;20101;-73
2021/11/18 04:37:47;;;;;;;26.25;13.18;;;;;;;4.65;50.81;100034.50;3399991;29;20071;-74
2021/11/18 04:39:28;;;;;;;24.35;12.95;;;;;;;4.62;50.91;100028.69;3397280;29;20622;-74
2021/11/18 04:41:08;;;;;;;25.35;13.48;;;;;;;4.63;50.98;100039.09;3387285;29;20071;-73
2021/11/18 04:42:50;;;;;;;28.05;13.85;;;;;;;4.61;50.82;100030.50;3397644;29;20515;-74
2021/11/18 04:44:35;;;;;;;25.27;12.85;;;;;;;4.58;50.82;100033.44;3412966;29;20123;-73
2021/11/18 04:46:16;;;;;;;;;;;;;;;4.71;50.82;100033.09;3391793;29;20067;-76
2021/11/18 04:48:00;;;;;;;26.13;14.45;;;;;;;4.66;50.74;100024.78;3388072;29;19930;-77
2021/11/18 04:49:44;;;;;;;29.42;13.90;;;;;;;4.65;50.77;100031.88;3400715;29;20056;-73
2021/11/18 04:51:26;;;;;;;28.40;14.05;;;;;;;4.65;50.89;100034.50;3413143;29;20057;-73
2021/11/18 04:53:07;;;;;;;;;;;;;;;4.74;50.87;100028.31;3400926;29;20142;-70
2021/11/18 04:54:48;;;;;;;25.40;11.88;;;;;;;4.61;51.11;100025.22;3400188;29;19918;-73
2021/11/18 04:56:29;;;;;;;24.73;13.32;;;;;;;4.61;51.38;100037.59;3399283;29;20043;-74
2021/11/18 04:58:10;;;;;;;38.72;16.27;;;;;;;4.60;51.39;100020.91;3400150;29;20537;-74
2021/11/18 04:59:53;;;;;;;28.60;13.23;;;;;;;4.59;51.25;100032.44;3413345;29;20062;-73
2021/11/18 05:01:35;;;;;;;27.20;15.77;;;;;;;4.54;51.23;100026.78;3405038;28;20047;-73
2021/11/18 05:03:18;;;;;;;25.83;14.27;;;;;;;4.53;51.28;100030.41;3423543;28;20356;-74
2021/11/18 05:05:00;;;;;;;29.35;15.55;;;;;;;4.48;51.34;100022.09;3407370;28;20054;-75
2021/11/18 05:06:41;;;;;;;27.67;16.88;;;;;;;4.43;51.32;100024.34;3402790;29;20043;-74
2021/11/18 05:08:23;;;;;;;34.10;17.02;;;;;;;4.38;51.30;100022.97;3389873;29;20067;-73
2021/11/18 05:10:05;;;;;;;;;;;;;;;4.49;51.01;100008.75;3406705;29;20280;-76
2021/11/18 05:11:46;;;;;;;28.57;15.77;;;;;;;4.40;51.04;100006.16;3400427;28;20020;-74
2021/11/18 05:13:29;;;;;;;31.77;15.15;;;;;;;4.32;51.18;100010.34;3426993;28;20754;-73
2021/11/18 05:15:18;;;;;;;27.67;15.55;;;;;;;4.31;51.38;100008.72;3414574;28;20043;-75
2021/11/18 05:16:59;;;;;;;27.58;15.65;;;;;;;4.34;51.33;100015.50;3424594;28;20046;-75
2021/11/18 05:18:42;;;;;;;29.85;16.23;;;;;;;4.37;51.17;100004.66;3415866;28;20518;-74
2021/11/18 05:20:23;;;;;;;31.55;16.60;;;;;;;4.39;51.03;100002.69;3412708;28;20126;-77
2021/11/18 05:22:05;;;;;;;28.92;16.65;;;;;;;4.40;51.06;100016.72;3427170;28;20042;-73
2021/11/18 05:23:47;;;;;;;31.60;17.00;;;;;;;4.37;51.00;100013.38;3429154;28;20121;-74
2021/11/18 05:25:30;;;;;;;29.40;15.93;;;;;;;4.33;51.18;99995.34;3415615;28;20071;-75
2021/11/18 05:27:13;;;;;;;34.00;18.25;;;;;;;4.30;50.85;99993.00;3411312;28;20325;-72
2021/11/18 05:28:55;;;;;;;;;;;;;;;4.37;51.00;100004.66;3415946;28;20074;-72
2021/11/18 05:30:38;;;;;;;27.60;16.20;;;;;;;4.25;50.99;99995.25;3425008;28;19924;-71
2021/11/18 05:32:20;;;;;;;31.08;15.82;;;;;;;4.27;51.01;99996.78;3428829;28;20051;-72
2021/11/18 05:34:03;;;;;;;32.65;16.70;;;;;;;4.26;51.30;99992.50;3426140;28;20110;-71
2021/11/18 05:35:50;;;;;;;36.35;17.80;;;;;;;4.26;51.27;100000.41;3428304;28;20038;-70
2021/11/18 05:37:34;;;;;;;30.02;16.40;;;;;;;4.27;51.24;99996.78;3414927;28;20118;-72
2021/11/18 05:39:15;;;;;;;31.17;16.90;;;;;;;4.29;51.17;100008.03;3408242;28;20410;-72
2021/11/18 05:41:07;;;;;;;32.60;16.10;;;;;;;4.32;51.24;99985.78;3427639;28;20039;-76
2021/11/18 05:42:50;;;;;;;29.45;17.17;;;;;;;4.39;51.24;99992.16;3410555;28;20094;-75
2021/11/18 05:44:30;;;;;;;30.40;16.90;;;;;;;4.42;51.39;99996.31;3412661;28;20039;-75
2021/11/18 05:46:14;;;;;;;28.23;15.88;;;;;;;4.51;52.58;99987.47;3405431;28;20122;-76
2021/11/18 05:47:55;;;;;;;29.42;14.93;;;;;;;4.60;52.31;99986.59;3423522;28;20050;-77
2021/11/18 05:49:36;;;;;;;29.95;16.38;;;;;;;4.66;51.88;99983.34;3428853;28;20045;-76
2021/11/18 05:51:29;;;;;;;26.75;15.50;;;;;;;4.73;51.79;99984.44;3427216;28;20133;-75
2021/11/18 05:53:09;;;;;;;33.53;15.90;;;;;;;4.78;51.53;99986.63;3428173;28;20058;-75
2021/11/18 05:54:50;;;;;;;30.05;15.23;;;;;;;4.88;51.67;99979.47;3409284;28;20133;-76
2021/11/18 05:56:31;;;;;;;32.47;17.60;;;;;;;4.98;51.33;99984.66;3414052;28;20035;-74
2021/11/18 05:58:12;;;;;;;28.33;15.85;;;;;;;5.01;51.13;99979.91;3425451;28;20035;-72
2021/11/18 05:59:54;;;;;;;37.22;18.77;;;;;;;5.11;51.04;99982.50;3421159;28;20129;-74
2021/11/18 06:01:37;;;;;;;37.60;19.30;;;;;;;5.13;50.59;99979.66;3414946;28;20047;-73
2021/11/18 06:03:18;;;;;;;33.40;17.00;;;;;;;5.11;50.37;99982.50;3412166;28;20098;-74
2021/11/18 06:04:59;;;;;;;32.20;16.07;;;;;;;5.11;50.23;99982.50;3425644;28;20047;-73
2021/11/18 06:06:40;;;;;;;32.80;18.90;;;;;;;5.13;50.48;99980.50;3414101;28;20390;-74
2021/11/18 06:08:21;;;;;;;33.80;17.08;;;;;;;5.20;50.27;99981.56;3412566;28;20094;-73
2021/11/18 06:10:04;;;;;;;29.50;16.75;;;;;;;5.19;50.08;99977.25;3401852;29;20052;-75
2021/11/18 06:11:45;;;;;;;29.73;16.98;;;;;;;5.17;50.02;99971.28;3399566;29;20048;-75
2021/11/18 06:13:33;;;;;;;29.80;17.83;;;;;;;5.15;49.98;99973.25;3413480;28;20518;-75
2021/11/18 06:15:14;;;;;;;33.97;19.15;;;;;;;5.21;50.26;99972.66;3416124;28;20043;-76
2021/11/18 06:16:56;;;;;;;30.70;17.17;;;;;;;5.30;50.01;99970.91;3414709;28;20425;-75
2021/11/18 06:18:38;;;;;;;30.73;17.33;;;;;;;5.33;49.98;99964.47;3425902;28;20045;-74
2021/11/18 06:20:19;;;;;;;32.33;16.75;;;;;;;5.31;49.72;99963.81;3414637;29;20047;-74
2021/11/18 06:22:00;;;;;;;25.15;15.35;;;;;;;5.32;49.96;99957.53;3412563;28;20057;-73
2021/11/18 06:23:51;;;;;;;25.98;14.13;;;;;;;5.38;50.31;99955.09;3412433;28;20031;-74
2021/11/18 06:25:40;;;;;;;32.42;16.48;;;;;;;5.38;50.20;99957.75;3412529;28;20490;-75
2021/11/18 06:27:22;;;;;;;35.17;15.80;;;;;;;5.31;50.66;99958.50;3426385;28;20046;-74
2021/11/18 06:29:04;;;;;;;28.95;17.30;;;;;;;5.34;50.44;99953.75;3427872;28;20481;-74
2021/11/18 06:30:51;;;;;;;32.53;17.23;;;;;;;5.39;49.67;99948.00;3407215;28;20074;-75
2021/11/18 06:32:32;;;;;;;30.70;16.60;;;;;;;5.41;49.76;99951.31;3415181;28;20043;-73
2021/11/18 06:34:14;;;;;;;38.30;18.73;;;;;;;5.38;49.53;99946.34;3407341;28;20183;-75
2021/11/18 06:35:56;;;;;;;33.20;15.35;;;;;;;5.41;49.43;99946.84;3398041;29;20430;-76
2021/11/18 06:37:37;;;;;;;25.85;15.38;;;;;;;5.39;49.20;99951.47;3422734;28;20086;-75
2021/11/18 06:39:21;;;;;;;33.92;14.93;;;;;;;5.47;49.35;99946.25;3404065;28;20044;-73
2021/11/18 06:41:02;;;;;;;29.92;14.43;;;;;;;5.55;49.26;99942.84;3399246;29;20040;-74
2021/11/18 06:42:45;;;;;;;26.93;15.80;;;;;;;5.55;48.89;99953.41;3412148;28;20098;-73
2021/11/18 06:44:48;;;;;;;24.63;12.73;;;;;;;5.45;48.79;99944.75;3415479;28;20295;-73
2021/11/18 06:46:31;;;;;;;23.13;14.45;;;;;;;5.34;48.70;99934.41;3422090;28;20047;-74
2021/11/18 06:48:14;;;;;;;27.42;14.85;;;;;;;5.26;48.78;99929.91;3413812;28;20035;-75
2021/11/18 06:50:02;;;;;;;24.83;13.35;;;;;;;5.23;48.81;99933.69;3413395;28;20061;-74
2021/11/18 06:51:43;;;;;;;26.70;15.00;;;;;;;5.17;48.78;99934.31;3412593;28;20131;-74
2021/11/18 06:53:24;;;;;;;24.25;14.00;;;;;;;5.07;48.84;99927.47;3411541;28;20086;-74
2021/11/18 06:55:07;;;;;;;23.30;12.60;;;;;;;5.02;48.82;99928.72;3415870;28;20126;-75
2021/11/18 06:56:47;;;;;;;;;;;;;;;5.17;48.92;99933.47;3410031;28;20153;-74
2021/11/18 06:58:28;;;;;;;19.15;11.48;;;;;;;5.16;48.92;99930.03;3412124;28;19914;-73
2021/11/18 07:00:11;;;;;;;23.65;12.85;;;;;;;5.21;48.87;99930.38;3414093;28;20082;-74
2021/11/18 07:01:55;;;;;;;22.55;13.93;;;;;;;5.22;48.53;99932.03;3411820;28;20043;-75
2021/11/18 07:03:40;;;;;;;25.50;12.80;;;;;;;5.15;48.44;99930.97;3412256;28;20086;-74
2021/11/18 07:05:24;;;;;;;20.15;11.52;;;;;;;5.14;48.58;99929.34;3401504;28;20134;-74
2021/11/18 07:07:06;;;;;;;26.17;13.05;;;;;;;5.14;48.39;99939.91;3421764;28;20415;-75
2021/11/18 07:08:48;;;;;;;21.05;12.43;;;;;;;5.10;48.67;99927.16;3425234;28;20062;-75
2021/11/18 07:10:28;;;;;;;23.55;11.98;;;;;;;5.07;48.47;99933.56;3411073;28;20455;-73
2021/11/18 07:12:20;;;;;;;28.98;12.55;;;;;;;4.98;48.55;99929.19;3401944;28;20051;-74
2021/11/18 07:14:02;;;;;;;25.92;13.45;;;;;;;4.86;48.59;99928.59;3401912;29;20491;-73
2021/11/18 07:15:43;;;;;;;28.40;12.85;;;;;;;4.72;48.86;99919.38;3385891;29;20036;-75
2021/11/18 07:17:28;;;;;;;25.55;13.35;;;;;;;4.67;48.90;99916.38;3401696;29;20043;-75
2021/11/18 07:19:10;;;;;;;21.98;13.77;;;;;;;4.68;48.96;99915.41;3400564;28;20079;-76
2021/11/18 07:20:51;;;;;;;26.30;12.75;;;;;;;4.67;48.96;99911.09;3411199;28;20043;-74
2021/11/18 07:22:34;;;;;;;23.00;12.32;;;;;;;4.68;49.10;99911.94;3411982;28;20167;-74
2021/11/18 07:24:21;;;;;;;29.25;13.52;;;;;;;4.71;49.16;99907.19;3398816;29;20047;-73
2021/11/18 07:26:03;;;;;;;20.67;12.38;;;;;;;4.73;49.19;99910.50;3420197;28;20399;-73
2021/11/18 07:27:45;;;;;;;24.75;11.90;;;;;;;4.76;49.37;99897.00;3413855;28;20604;-74
2021/11/18 07:29:26;;;;;;;28.73;13.27;;;;;;;4.85;49.64;99907.63;3400913;28;20457;-75
2021/11/18 07:31:09;;;;;;;21.20;11.52;;;;;;;4.97;49.29;99911.69;3418431;28;20316;-74
2021/11/18 07:32:58;;;;;;;28.48;14.27;;;;;;;5.15;49.29;99901.91;3400619;29;20047;-74
2021/11/18 07:34:42;;;;;;;19.15;11.07;;;;;;;5.28;49.44;99912.09;3425563;28;20051;-73
2021/11/18 07:36:35;;;;;;;23.70;12.68;;;;;;;5.43;49.37;99907.88;3414918;28;20577;-74
2021/11/18 07:38:25;;;;;;;27.50;13.07;;;;;;;5.56;48.77;99904.81;3417084;28;20051;-74
2021/11/18 07:40:10;;;;;;;25.98;12.00;;;;;;;5.59;48.51;99896.56;3425762;28;20035;-74
2021/11/18 07:41:53;;;;;;;22.45;12.40;;;;;;;5.53;48.29;99905.16;3436388;28;20047;-73
2021/11/18 07:43:52;;;;;;;23.95;10.50;;;;;;;5.51;49.09;99904.47;3438370;28;20039;-74
2021/11/18 07:46:05;;;;;;;27.13;13.13;;;;;;;5.61;48.92;99902.53;3392314;29;20541;-72
2021/11/18 07:48:09;;;;;;;22.77;10.77;;;;;;;5.68;48.65;99897.47;3417766;28;20042;-74
2021/11/18 07:49:51;;;;;;;23.23;12.48;;;;;;;5.66;48.45;99897.63;3413795;28;20047;-76
2021/11/18 07:51:32;;;;;;;24.17;14.07;;;;;;;5.57;48.15;99898.53;3411577;28;20046;-76
2021/11/18 07:53:14;;;;;;;20.83;11.35;;;;;;;5.49;48.27;99890.56;3423565;28;20438;-75
2021/11/18 07:54:56;;;;;;;24.77;13.13;;;;;;;5.36;48.23;99892.81;3427061;28;20471;-75
2021/11/18 07:56:37;;;;;;;22.13;13.00;;;;;;;5.23;48.58;99886.13;3427325;28;20038;-75
2021/11/18 07:58:18;;;;;;;28.33;15.80;;;;;;;5.15;48.53;99878.13;3426660;28;20102;-74
2021/11/18 08:00:00;;;;;;;22.52;12.98;;;;;;;5.12;48.58;99883.75;3400421;29;20078;-73
2021/11/18 08:01:49;;;;;;;27.00;13.23;;;;;;;5.13;48.54;99880.09;3425191;28;20042;-74
2021/11/18 08:03:30;;;;;;;29.13;13.68;;;;;;;5.09;48.78;99878.78;3421865;28;20134;-75